Los Angeles, California
Current Conditions -  °F | °C
As of 11:47 AM on Thursday 30 Oct 2014 (Local Time) from KCQT Reporting Station
Clear Clear  
Wind Chill: 26°   Ceiling: Unl
Heat Index: 26°   Visibility: 9mi
Dew Point:   Wind: 3mph
Humidity: 35%   Direction: NA
Pressure: 29.97"   Gusts: NA
Location:  34.05°N, 118.24°W
Report Text: KCQT 301847Z AUTO VRB03KT 9SM CLR 26/09 A2997 RMK AO2 SLP145 T02610094
Loading
Personal Weather Stations






























Interactive Weather Map
Tropical Storm Tracking
New forecast layout! Learn more

10-Day Weather Forecast

Advertisements
Track Severe Weather on mobile